sensor_id;sensor_type;location;lat;lon;timestamp;temperature;humidity
148;DHT22;142;50.652;12.216;2022-12-07T00:01:20;4.00;46.20
148;DHT22;142;50.652;12.216;2022-12-07T00:03:49;4.10;46.20
148;DHT22;142;50.652;12.216;2022-12-07T00:06:17;4.10;46.10
148;DHT22;142;50.652;12.216;2022-12-07T00:08:45;4.00;46.00
148;DHT22;142;50.652;12.216;2022-12-07T00:11:16;3.90;45.70
148;DHT22;142;50.652;12.216;2022-12-07T00:13:44;3.80;45.60
148;DHT22;142;50.652;12.216;2022-12-07T00:16:13;3.80;45.50
148;DHT22;142;50.652;12.216;2022-12-07T00:18:41;3.70;45.70
148;DHT22;142;50.652;12.216;2022-12-07T00:21:11;3.60;45.50
148;DHT22;142;50.652;12.216;2022-12-07T00:23:39;3.60;45.60
148;DHT22;142;50.652;12.216;2022-12-07T00:26:08;3.50;45.40
148;DHT22;142;50.652;12.216;2022-12-07T00:28:38;3.40;45.20
148;DHT22;142;50.652;12.216;2022-12-07T00:31:07;3.50;45.10
148;DHT22;142;50.652;12.216;2022-12-07T00:33:35;3.40;45.00
148;DHT22;142;50.652;12.216;2022-12-07T00:36:06;3.30;44.70
148;DHT22;142;50.652;12.216;2022-12-07T00:38:35;3.30;44.60
148;DHT22;142;50.652;12.216;2022-12-07T00:41:04;3.20;44.50
148;DHT22;142;50.652;12.216;2022-12-07T00:43:32;3.20;44.50
148;DHT22;142;50.652;12.216;2022-12-07T00:46:01;3.30;44.60
148;DHT22;142;50.652;12.216;2022-12-07T00:48:28;3.20;44.50
148;DHT22;142;50.652;12.216;2022-12-07T00:50:56;3.20;44.40
148;DHT22;142;50.652;12.216;2022-12-07T00:53:23;3.20;44.40
148;DHT22;142;50.652;12.216;2022-12-07T00:55:50;3.10;44.50
148;DHT22;142;50.652;12.216;2022-12-07T00:58:19;3.10;44.50
148;DHT22;142;50.652;12.216;2022-12-07T01:00:46;3.00;44.40
148;DHT22;142;50.652;12.216;2022-12-07T01:03:15;3.00;44.40
148;DHT22;142;50.652;12.216;2022-12-07T01:05:49;3.00;44.40
148;DHT22;142;50.652;12.216;2022-12-07T01:08:17;2.90;44.60
148;DHT22;142;50.652;12.216;2022-12-07T01:10:45;2.90;44.60
148;DHT22;142;50.652;12.216;2022-12-07T01:13:12;2.90;44.60
148;DHT22;142;50.652;12.216;2022-12-07T01:15:40;2.90;44.50
148;DHT22;142;50.652;12.216;2022-12-07T01:18:07;2.90;44.60
148;DHT22;142;50.652;12.216;2022-12-07T01:20:37;3.00;44.70
148;DHT22;142;50.652;12.216;2022-12-07T01:23:04;3.00;44.70
148;DHT22;142;50.652;12.216;2022-12-07T01:25:32;3.10;44.60
148;DHT22;142;50.652;12.216;2022-12-07T01:27:59;3.10;44.60
148;DHT22;142;50.652;12.216;2022-12-07T01:30:26;3.10;44.50
148;DHT22;142;50.652;12.216;2022-12-07T01:32:53;3.10;44.50
148;DHT22;142;50.652;12.216;2022-12-07T01:35:21;3.10;44.50
148;DHT22;142;50.652;12.216;2022-12-07T01:37:50;3.10;44.40
148;DHT22;142;50.652;12.216;2022-12-07T01:40:18;3.10;44.40
148;DHT22;142;50.652;12.216;2022-12-07T01:42:45;3.10;44.30
148;DHT22;142;50.652;12.216;2022-12-07T01:45:37;3.10;44.30
148;DHT22;142;50.652;12.216;2022-12-07T01:48:05;3.00;44.30
148;DHT22;142;50.652;12.216;2022-12-07T01:50:35;3.00;44.20
148;DHT22;142;50.652;12.216;2022-12-07T01:53:06;3.00;44.20
148;DHT22;142;50.652;12.216;2022-12-07T01:55:37;3.00;44.20
148;DHT22;142;50.652;12.216;2022-12-07T01:58:06;2.90;44.20
148;DHT22;142;50.652;12.216;2022-12-07T02:00:33;2.90;44.20
148;DHT22;142;50.652;12.216;2022-12-07T02:03:05;2.80;44.20
148;DHT22;142;50.652;12.216;2022-12-07T02:05:35;2.80;44.20
148;DHT22;142;50.652;12.216;2022-12-07T02:08:05;2.70;44.20
148;DHT22;142;50.652;12.216;2022-12-07T02:10:33;2.60;44.20
148;DHT22;142;50.652;12.216;2022-12-07T02:13:03;2.60;44.20
148;DHT22;142;50.652;12.216;2022-12-07T02:15:38;2.50;44.20
148;DHT22;142;50.652;12.216;2022-12-07T02:18:14;2.40;44.20
148;DHT22;142;50.652;12.216;2022-12-07T02:20:47;2.30;44.40
148;DHT22;142;50.652;12.216;2022-12-07T02:26:53;2.20;44.70
148;DHT22;142;50.652;12.216;2022-12-07T02:29:26;2.20;44.80
148;DHT22;142;50.652;12.216;2022-12-07T02:32:00;2.10;44.80
148;DHT22;142;50.652;12.216;2022-12-07T02:34:38;2.10;44.90
148;DHT22;142;50.652;12.216;2022-12-07T02:37:10;2.10;44.90
148;DHT22;142;50.652;12.216;2022-12-07T02:39:42;2.10;44.90
148;DHT22;142;50.652;12.216;2022-12-07T02:42:17;2.10;45.00
148;DHT22;142;50.652;12.216;2022-12-07T02:44:47;2.00;45.00
148;DHT22;142;50.652;12.216;2022-12-07T02:47:16;2.00;45.00
148;DHT22;142;50.652;12.216;2022-12-07T02:49:46;2.00;45.10
148;DHT22;142;50.652;12.216;2022-12-07T02:52:13;1.90;45.20
148;DHT22;142;50.652;12.216;2022-12-07T02:54:40;1.90;45.20
148;DHT22;142;50.652;12.216;2022-12-07T02:57:18;1.90;45.30
148;DHT22;142;50.652;12.216;2022-12-07T02:59:57;1.90;45.40
148;DHT22;142;50.652;12.216;2022-12-07T03:02:31;1.90;45.40
148;DHT22;142;50.652;12.216;2022-12-07T03:05:20;1.90;45.40
148;DHT22;142;50.652;12.216;2022-12-07T03:07:58;1.90;45.50
148;DHT22;142;50.652;12.216;2022-12-07T03:10:34;1.90;45.50
148;DHT22;142;50.652;12.216;2022-12-07T03:13:07;1.80;45.50
148;DHT22;142;50.652;12.216;2022-12-07T03:15:42;1.80;45.60
148;DHT22;142;50.652;12.216;2022-12-07T03:18:13;1.80;45.70
148;DHT22;142;50.652;12.216;2022-12-07T03:20:44;1.90;45.70
148;DHT22;142;50.652;12.216;2022-12-07T03:23:12;1.90;45.60
148;DHT22;142;50.652;12.216;2022-12-07T03:25:45;1.90;45.70
148;DHT22;142;50.652;12.216;2022-12-07T03:28:15;1.90;45.70
148;DHT22;142;50.652;12.216;2022-12-07T03:30:47;1.90;45.70
148;DHT22;142;50.652;12.216;2022-12-07T03:33:21;1.90;45.90
148;DHT22;142;50.652;12.216;2022-12-07T03:35:53;1.90;45.90
148;DHT22;142;50.652;12.216;2022-12-07T03:38:25;2.00;46.00
148;DHT22;142;50.652;12.216;2022-12-07T03:40:57;2.00;45.90
148;DHT22;142;50.652;12.216;2022-12-07T03:43:28;2.00;45.90
148;DHT22;142;50.652;12.216;2022-12-07T03:46:02;2.10;45.90
148;DHT22;142;50.652;12.216;2022-12-07T03:48:35;2.10;46.00
148;DHT22;142;50.652;12.216;2022-12-07T03:51:09;2.10;45.90
148;DHT22;142;50.652;12.216;2022-12-07T03:53:42;2.20;46.00
148;DHT22;142;50.652;12.216;2022-12-07T03:56:12;2.30;46.00
148;DHT22;142;50.652;12.216;2022-12-07T03:58:40;2.30;46.00
148;DHT22;142;50.652;12.216;2022-12-07T04:01:09;2.40;46.00
148;DHT22;142;50.652;12.216;2022-12-07T04:03:39;2.30;45.80
148;DHT22;142;50.652;12.216;2022-12-07T04:06:06;2.30;45.80
148;DHT22;142;50.652;12.216;2022-12-07T04:08:33;2.40;46.00
148;DHT22;142;50.652;12.216;2022-12-07T04:11:00;2.40;46.00
148;DHT22;142;50.652;12.216;2022-12-07T04:13:27;2.50;46.00
148;DHT22;142;50.652;12.216;2022-12-07T04:15:54;2.50;46.00
148;DHT22;142;50.652;12.216;2022-12-07T04:18:24;2.50;46.00
148;DHT22;142;50.652;12.216;2022-12-07T04:20:51;2.50;46.00
148;DHT22;142;50.652;12.216;2022-12-07T04:23:18;2.60;46.00
148;DHT22;142;50.652;12.216;2022-12-07T04:25:48;2.60;46.00
148;DHT22;142;50.652;12.216;2022-12-07T04:28:15;2.60;46.00
148;DHT22;142;50.652;12.216;2022-12-07T04:30:42;2.70;46.00
148;DHT22;142;50.652;12.216;2022-12-07T04:33:09;2.70;46.00
148;DHT22;142;50.652;12.216;2022-12-07T04:35:37;2.80;46.00
148;DHT22;142;50.652;12.216;2022-12-07T04:38:04;2.80;45.90
148;DHT22;142;50.652;12.216;2022-12-07T04:40:32;2.80;45.80
148;DHT22;142;50.652;12.216;2022-12-07T04:42:59;2.80;45.80
148;DHT22;142;50.652;12.216;2022-12-07T04:45:26;2.80;45.90
148;DHT22;142;50.652;12.216;2022-12-07T04:47:53;2.70;45.60
148;DHT22;142;50.652;12.216;2022-12-07T04:50:20;2.80;45.80
148;DHT22;142;50.652;12.216;2022-12-07T04:52:49;2.80;45.90
148;DHT22;142;50.652;12.216;2022-12-07T04:55:16;2.80;45.90
148;DHT22;142;50.652;12.216;2022-12-07T04:57:43;2.80;46.00
148;DHT22;142;50.652;12.216;2022-12-07T05:00:11;2.80;45.80
148;DHT22;142;50.652;12.216;2022-12-07T05:02:38;2.70;45.90
148;DHT22;142;50.652;12.216;2022-12-07T05:05:06;2.70;45.90
148;DHT22;142;50.652;12.216;2022-12-07T05:07:33;2.80;46.10
148;DHT22;142;50.652;12.216;2022-12-07T05:10:02;2.90;46.10
148;DHT22;142;50.652;12.216;2022-12-07T05:12:30;3.00;46.20
148;DHT22;142;50.652;12.216;2022-12-07T05:14:57;3.00;46.30
148;DHT22;142;50.652;12.216;2022-12-07T05:17:25;3.10;46.10
148;DHT22;142;50.652;12.216;2022-12-07T05:19:51;3.10;46.00
148;DHT22;142;50.652;12.216;2022-12-07T05:22:18;3.20;46.00
148;DHT22;142;50.652;12.216;2022-12-07T05:24:45;3.20;46.00
148;DHT22;142;50.652;12.216;2022-12-07T05:27:14;3.20;45.80
148;DHT22;142;50.652;12.216;2022-12-07T05:29:41;3.10;45.60
148;DHT22;142;50.652;12.216;2022-12-07T05:32:08;3.10;45.50
148;DHT22;142;50.652;12.216;2022-12-07T05:34:35;3.10;45.70
148;DHT22;142;50.652;12.216;2022-12-07T05:37:02;3.10;45.80
148;DHT22;142;50.652;12.216;2022-12-07T05:39:29;3.10;45.90
148;DHT22;142;50.652;12.216;2022-12-07T05:41:56;3.20;45.90
148;DHT22;142;50.652;12.216;2022-12-07T05:44:40;3.20;46.00
148;DHT22;142;50.652;12.216;2022-12-07T05:47:08;3.30;46.00
148;DHT22;142;50.652;12.216;2022-12-07T05:49:35;3.30;45.90
148;DHT22;142;50.652;12.216;2022-12-07T05:52:03;3.40;45.90
148;DHT22;142;50.652;12.216;2022-12-07T05:54:30;3.40;46.00
148;DHT22;142;50.652;12.216;2022-12-07T05:56:57;3.40;46.00
148;DHT22;142;50.652;12.216;2022-12-07T05:59:25;3.40;45.80
148;DHT22;142;50.652;12.216;2022-12-07T06:01:56;3.40;45.70
148;DHT22;142;50.652;12.216;2022-12-07T06:04:25;3.50;45.80
148;DHT22;142;50.652;12.216;2022-12-07T06:06:53;3.50;45.90
148;DHT22;142;50.652;12.216;2022-12-07T06:09:23;3.50;45.90
148;DHT22;142;50.652;12.216;2022-12-07T06:11:51;3.50;45.90
148;DHT22;142;50.652;12.216;2022-12-07T06:14:35;3.60;45.80
148;DHT22;142;50.652;12.216;2022-12-07T06:17:05;3.70;45.90
148;DHT22;142;50.652;12.216;2022-12-07T06:19:32;3.60;45.70
148;DHT22;142;50.652;12.216;2022-12-07T06:22:00;3.60;45.60
148;DHT22;142;50.652;12.216;2022-12-07T06:24:26;3.60;45.70
148;DHT22;142;50.652;12.216;2022-12-07T06:26:54;3.70;45.70
148;DHT22;142;50.652;12.216;2022-12-07T06:29:22;3.60;45.60
148;DHT22;142;50.652;12.216;2022-12-07T06:31:49;3.60;45.60
148;DHT22;142;50.652;12.216;2022-12-07T06:34:19;3.60;45.70
148;DHT22;142;50.652;12.216;2022-12-07T06:36:48;3.70;45.80
148;DHT22;142;50.652;12.216;2022-12-07T06:39:17;3.80;46.00
148;DHT22;142;50.652;12.216;2022-12-07T06:41:45;3.80;45.90
148;DHT22;142;50.652;12.216;2022-12-07T06:44:12;3.80;45.70
148;DHT22;142;50.652;12.216;2022-12-07T06:46:39;3.80;45.80
148;DHT22;142;50.652;12.216;2022-12-07T06:49:06;3.80;45.80
148;DHT22;142;50.652;12.216;2022-12-07T06:51:35;3.90;45.90
148;DHT22;142;50.652;12.216;2022-12-07T06:54:06;3.90;45.80
148;DHT22;142;50.652;12.216;2022-12-07T06:56:33;3.90;45.70
148;DHT22;142;50.652;12.216;2022-12-07T06:59:02;3.90;45.80
148;DHT22;142;50.652;12.216;2022-12-07T07:01:29;4.00;45.70
148;DHT22;142;50.652;12.216;2022-12-07T07:03:56;3.90;45.60
148;DHT22;142;50.652;12.216;2022-12-07T07:06:23;3.90;45.50
148;DHT22;142;50.652;12.216;2022-12-07T07:08:52;4.00;45.70
148;DHT22;142;50.652;12.216;2022-12-07T07:11:19;4.00;45.60
148;DHT22;142;50.652;12.216;2022-12-07T07:13:46;3.90;45.40
148;DHT22;142;50.652;12.216;2022-12-07T07:16:14;3.90;45.40
148;DHT22;142;50.652;12.216;2022-12-07T07:18:44;3.90;45.60
148;DHT22;142;50.652;12.216;2022-12-07T07:21:11;3.80;45.60
148;DHT22;142;50.652;12.216;2022-12-07T07:23:38;3.80;45.60
148;DHT22;142;50.652;12.216;2022-12-07T07:26:07;3.70;45.70
148;DHT22;142;50.652;12.216;2022-12-07T07:28:34;3.70;45.90
148;DHT22;142;50.652;12.216;2022-12-07T07:31:02;3.70;46.10
148;DHT22;142;50.652;12.216;2022-12-07T07:33:29;3.70;46.10
148;DHT22;142;50.652;12.216;2022-12-07T07:35:57;3.80;46.30
148;DHT22;142;50.652;12.216;2022-12-07T07:38:24;3.80;46.40
148;DHT22;142;50.652;12.216;2022-12-07T07:40:51;3.80;46.40
148;DHT22;142;50.652;12.216;2022-12-07T07:43:19;3.70;46.30
148;DHT22;142;50.652;12.216;2022-12-07T07:45:47;3.70;46.30
148;DHT22;142;50.652;12.216;2022-12-07T07:48:13;3.70;46.40
148;DHT22;142;50.652;12.216;2022-12-07T07:50:41;3.60;46.60
148;DHT22;142;50.652;12.216;2022-12-07T07:53:08;3.70;46.80
148;DHT22;142;50.652;12.216;2022-12-07T07:55:35;3.80;47.10
148;DHT22;142;50.652;12.216;2022-12-07T07:58:02;3.70;47.00
148;DHT22;142;50.652;12.216;2022-12-07T08:00:30;3.70;46.90
148;DHT22;142;50.652;12.216;2022-12-07T08:02:57;3.70;46.80
148;DHT22;142;50.652;12.216;2022-12-07T08:05:25;3.70;47.00
148;DHT22;142;50.652;12.216;2022-12-07T08:07:52;3.80;47.10
148;DHT22;142;50.652;12.216;2022-12-07T08:10:19;3.80;47.10
148;DHT22;142;50.652;12.216;2022-12-07T08:12:46;3.80;47.00
148;DHT22;142;50.652;12.216;2022-12-07T08:15:32;3.90;47.00
148;DHT22;142;50.652;12.216;2022-12-07T08:17:59;3.90;47.00
148;DHT22;142;50.652;12.216;2022-12-07T08:20:26;3.90;47.10
148;DHT22;142;50.652;12.216;2022-12-07T08:22:53;4.00;46.80
148;DHT22;142;50.652;12.216;2022-12-07T08:25:20;4.00;46.80
148;DHT22;142;50.652;12.216;2022-12-07T08:27:47;4.00;46.80
148;DHT22;142;50.652;12.216;2022-12-07T08:30:15;4.00;46.70
148;DHT22;142;50.652;12.216;2022-12-07T08:32:45;4.10;46.50
148;DHT22;142;50.652;12.216;2022-12-07T08:35:13;4.10;46.40
148;DHT22;142;50.652;12.216;2022-12-07T08:37:41;4.00;46.30
148;DHT22;142;50.652;12.216;2022-12-07T08:40:10;4.10;46.40
148;DHT22;142;50.652;12.216;2022-12-07T08:42:40;4.20;46.30
148;DHT22;142;50.652;12.216;2022-12-07T08:45:10;4.20;46.10
148;DHT22;142;50.652;12.216;2022-12-07T08:47:40;4.20;45.90
148;DHT22;142;50.652;12.216;2022-12-07T08:50:11;4.20;45.90
148;DHT22;142;50.652;12.216;2022-12-07T08:52:40;4.30;45.90
148;DHT22;142;50.652;12.216;2022-12-07T08:55:09;4.30;45.80
148;DHT22;142;50.652;12.216;2022-12-07T08:57:39;4.20;45.70
148;DHT22;142;50.652;12.216;2022-12-07T09:00:07;4.30;45.70
148;DHT22;142;50.652;12.216;2022-12-07T09:02:34;4.30;45.80
148;DHT22;142;50.652;12.216;2022-12-07T09:05:02;4.30;45.70
148;DHT22;142;50.652;12.216;2022-12-07T09:07:31;4.40;45.90
148;DHT22;142;50.652;12.216;2022-12-07T09:09:59;4.40;45.80
148;DHT22;142;50.652;12.216;2022-12-07T09:12:27;4.50;45.70
148;DHT22;142;50.652;12.216;2022-12-07T09:14:55;4.60;45.60
148;DHT22;142;50.652;12.216;2022-12-07T09:17:22;4.70;45.60
148;DHT22;142;50.652;12.216;2022-12-07T09:19:50;4.80;45.50
148;DHT22;142;50.652;12.216;2022-12-07T09:22:17;4.90;45.30
148;DHT22;142;50.652;12.216;2022-12-07T09:24:46;5.00;45.20
148;DHT22;142;50.652;12.216;2022-12-07T09:27:13;5.10;45.10
148;DHT22;142;50.652;12.216;2022-12-07T09:29:43;5.10;44.70
148;DHT22;142;50.652;12.216;2022-12-07T09:32:10;5.00;44.50
148;DHT22;142;50.652;12.216;2022-12-07T09:34:37;5.00;44.50
148;DHT22;142;50.652;12.216;2022-12-07T09:37:04;5.10;44.70
148;DHT22;142;50.652;12.216;2022-12-07T09:39:32;5.20;44.70
148;DHT22;142;50.652;12.216;2022-12-07T09:42:03;5.20;44.60
148;DHT22;142;50.652;12.216;2022-12-07T09:44:32;5.30;44.60
148;DHT22;142;50.652;12.216;2022-12-07T09:46:59;5.30;44.40
148;DHT22;142;50.652;12.216;2022-12-07T09:49:29;5.30;44.30
148;DHT22;142;50.652;12.216;2022-12-07T09:52:04;5.40;44.20
148;DHT22;142;50.652;12.216;2022-12-07T09:54:46;5.40;44.20
148;DHT22;142;50.652;12.216;2022-12-07T09:57:15;5.40;44.10
148;DHT22;142;50.652;12.216;2022-12-07T09:59:42;5.40;43.70
148;DHT22;142;50.652;12.216;2022-12-07T10:02:26;5.50;43.80
148;DHT22;142;50.652;12.216;2022-12-07T10:04:57;5.40;43.40
148;DHT22;142;50.652;12.216;2022-12-07T10:07:25;5.50;43.60
148;DHT22;142;50.652;12.216;2022-12-07T10:09:52;5.50;43.30
148;DHT22;142;50.652;12.216;2022-12-07T10:12:20;5.50;43.30
148;DHT22;142;50.652;12.216;2022-12-07T10:14:56;5.60;43.30
148;DHT22;142;50.652;12.216;2022-12-07T10:17:37;5.60;43.40
148;DHT22;142;50.652;12.216;2022-12-07T10:20:20;5.70;43.00
148;DHT22;142;50.652;12.216;2022-12-07T10:23:01;5.70;43.00
148;DHT22;142;50.652;12.216;2022-12-07T10:25:31;5.80;43.00
148;DHT22;142;50.652;12.216;2022-12-07T10:28:12;5.90;43.00
148;DHT22;142;50.652;12.216;2022-12-07T10:30:55;6.10;42.90
148;DHT22;142;50.652;12.216;2022-12-07T10:33:29;6.20;42.80
148;DHT22;142;50.652;12.216;2022-12-07T10:35:57;6.20;42.40
148;DHT22;142;50.652;12.216;2022-12-07T10:38:26;6.20;42.40
148;DHT22;142;50.652;12.216;2022-12-07T10:41:06;6.10;42.40
148;DHT22;142;50.652;12.216;2022-12-07T10:43:36;6.10;42.30
148;DHT22;142;50.652;12.216;2022-12-07T10:46:25;6.10;42.70
148;DHT22;142;50.652;12.216;2022-12-07T10:49:02;6.10;42.60
148;DHT22;142;50.652;12.216;2022-12-07T10:51:38;6.00;42.60
148;DHT22;142;50.652;12.216;2022-12-07T10:54:12;6.00;42.60
148;DHT22;142;50.652;12.216;2022-12-07T10:57:05;6.00;42.40
148;DHT22;142;50.652;12.216;2022-12-07T10:59:51;6.10;42.60
148;DHT22;142;50.652;12.216;2022-12-07T11:02:30;6.20;42.60
148;DHT22;142;50.652;12.216;2022-12-07T11:05:06;6.40;43.00
148;DHT22;142;50.652;12.216;2022-12-07T11:07:45;6.50;42.40
148;DHT22;142;50.652;12.216;2022-12-07T11:10:18;6.20;42.20
148;DHT22;142;50.652;12.216;2022-12-07T11:12:57;6.30;42.20
148;DHT22;142;50.652;12.216;2022-12-07T11:15:36;6.30;42.50
148;DHT22;142;50.652;12.216;2022-12-07T11:18:12;6.30;42.30
148;DHT22;142;50.652;12.216;2022-12-07T11:20:44;6.10;42.10
148;DHT22;142;50.652;12.216;2022-12-07T11:23:29;6.20;42.20
148;DHT22;142;50.652;12.216;2022-12-07T11:26:04;6.00;42.70
148;DHT22;142;50.652;12.216;2022-12-07T11:28:47;6.10;42.70
148;DHT22;142;50.652;12.216;2022-12-07T11:31:28;6.10;42.60
148;DHT22;142;50.652;12.216;2022-12-07T11:34:02;6.20;42.50
148;DHT22;142;50.652;12.216;2022-12-07T11:36:37;6.10;42.30
148;DHT22;142;50.652;12.216;2022-12-07T11:39:15;6.00;42.70
148;DHT22;142;50.652;12.216;2022-12-07T11:41:48;5.90;42.40
148;DHT22;142;50.652;12.216;2022-12-07T11:44:25;5.80;42.40
148;DHT22;142;50.652;12.216;2022-12-07T11:46:59;5.80;42.80
148;DHT22;142;50.652;12.216;2022-12-07T11:49:37;6.00;42.60
148;DHT22;142;50.652;12.216;2022-12-07T11:52:14;5.90;42.40
148;DHT22;142;50.652;12.216;2022-12-07T11:54:43;5.90;42.30
148;DHT22;142;50.652;12.216;2022-12-07T11:57:16;5.90;42.90
148;DHT22;142;50.652;12.216;2022-12-07T11:59:49;5.80;42.90
148;DHT22;142;50.652;12.216;2022-12-07T12:02:21;5.80;42.50
148;DHT22;142;50.652;12.216;2022-12-07T12:04:54;5.80;42.30
148;DHT22;142;50.652;12.216;2022-12-07T12:07:23;5.80;42.90
148;DHT22;142;50.652;12.216;2022-12-07T12:09:53;5.80;42.30
148;DHT22;142;50.652;12.216;2022-12-07T12:12:52;5.80;42.40
148;DHT22;142;50.652;12.216;2022-12-07T12:15:33;6.00;42.20
148;DHT22;142;50.652;12.216;2022-12-07T12:21:12;6.00;42.30
148;DHT22;142;50.652;12.216;2022-12-07T12:23:44;5.90;42.10
148;DHT22;142;50.652;12.216;2022-12-07T12:26:17;5.90;41.90
148;DHT22;142;50.652;12.216;2022-12-07T12:28:53;5.90;42.00
148;DHT22;142;50.652;12.216;2022-12-07T12:31:37;5.80;42.10
148;DHT22;142;50.652;12.216;2022-12-07T12:34:40;5.80;42.30
148;DHT22;142;50.652;12.216;2022-12-07T12:37:43;5.90;42.30
148;DHT22;142;50.652;12.216;2022-12-07T12:46:47;6.00;42.30
148;DHT22;142;50.652;12.216;2022-12-07T12:49:36;6.00;42.20
148;DHT22;142;50.652;12.216;2022-12-07T12:55:19;6.10;42.40
148;DHT22;142;50.652;12.216;2022-12-07T12:58:21;6.00;42.00
148;DHT22;142;50.652;12.216;2022-12-07T13:03:55;6.00;42.00
148;DHT22;142;50.652;12.216;2022-12-07T13:06:35;6.00;42.20
148;DHT22;142;50.652;12.216;2022-12-07T13:09:03;6.00;42.00
148;DHT22;142;50.652;12.216;2022-12-07T13:11:35;6.10;42.30
148;DHT22;142;50.652;12.216;2022-12-07T13:14:41;6.00;42.10
148;DHT22;142;50.652;12.216;2022-12-07T13:17:10;5.80;42.20
148;DHT22;142;50.652;12.216;2022-12-07T13:19:59;5.50;42.30
148;DHT22;142;50.652;12.216;2022-12-07T13:22:53;5.50;42.40
148;DHT22;142;50.652;12.216;2022-12-07T13:25:38;5.50;42.50
148;DHT22;142;50.652;12.216;2022-12-07T13:28:15;5.70;42.70
148;DHT22;142;50.652;12.216;2022-12-07T13:30:52;5.80;42.70
148;DHT22;142;50.652;12.216;2022-12-07T13:33:22;5.90;42.40
148;DHT22;142;50.652;12.216;2022-12-07T13:35:53;5.90;42.40
148;DHT22;142;50.652;12.216;2022-12-07T13:38:27;5.80;42.30
148;DHT22;142;50.652;12.216;2022-12-07T13:41:12;5.90;42.60
148;DHT22;142;50.652;12.216;2022-12-07T13:43:45;5.80;42.40
148;DHT22;142;50.652;12.216;2022-12-07T13:46:12;5.80;42.30
148;DHT22;142;50.652;12.216;2022-12-07T13:48:45;5.80;42.40
148;DHT22;142;50.652;12.216;2022-12-07T13:51:24;5.80;42.50
148;DHT22;142;50.652;12.216;2022-12-07T13:53:53;5.80;42.60
148;DHT22;142;50.652;12.216;2022-12-07T13:56:22;5.70;42.50
148;DHT22;142;50.652;12.216;2022-12-07T13:58:50;5.80;42.60
148;DHT22;142;50.652;12.216;2022-12-07T14:01:18;5.80;42.70
148;DHT22;142;50.652;12.216;2022-12-07T14:03:45;5.80;42.40
148;DHT22;142;50.652;12.216;2022-12-07T14:06:20;5.90;42.70
148;DHT22;142;50.652;12.216;2022-12-07T14:08:51;5.80;42.50
148;DHT22;142;50.652;12.216;2022-12-07T14:11:32;5.70;42.40
148;DHT22;142;50.652;12.216;2022-12-07T14:14:02;5.70;42.50
148;DHT22;142;50.652;12.216;2022-12-07T14:16:31;5.70;42.60
148;DHT22;142;50.652;12.216;2022-12-07T14:19:02;5.70;42.50
148;DHT22;142;50.652;12.216;2022-12-07T14:21:30;5.70;42.40
148;DHT22;142;50.652;12.216;2022-12-07T14:24:25;5.60;42.40
148;DHT22;142;50.652;12.216;2022-12-07T14:26:52;5.60;42.50
148;DHT22;142;50.652;12.216;2022-12-07T14:29:28;5.50;42.60
148;DHT22;142;50.652;12.216;2022-12-07T14:31:57;5.50;42.40
148;DHT22;142;50.652;12.216;2022-12-07T14:34:25;5.50;42.50
148;DHT22;142;50.652;12.216;2022-12-07T14:36:53;5.50;42.40
148;DHT22;142;50.652;12.216;2022-12-07T14:39:20;5.50;42.40
148;DHT22;142;50.652;12.216;2022-12-07T14:41:47;5.50;42.80
148;DHT22;142;50.652;12.216;2022-12-07T14:44:18;5.40;42.50
148;DHT22;142;50.652;12.216;2022-12-07T14:46:50;5.40;42.30
148;DHT22;142;50.652;12.216;2022-12-07T14:49:18;5.40;42.60
148;DHT22;142;50.652;12.216;2022-12-07T14:51:46;5.30;42.50
148;DHT22;142;50.652;12.216;2022-12-07T14:54:16;5.30;42.50
148;DHT22;142;50.652;12.216;2022-12-07T14:56:44;5.30;42.50
148;DHT22;142;50.652;12.216;2022-12-07T14:59:15;5.20;42.50
148;DHT22;142;50.652;12.216;2022-12-07T15:01:42;5.20;42.60
148;DHT22;142;50.652;12.216;2022-12-07T15:04:11;5.30;42.60
148;DHT22;142;50.652;12.216;2022-12-07T15:06:39;5.20;42.50
148;DHT22;142;50.652;12.216;2022-12-07T15:09:10;5.20;42.50
148;DHT22;142;50.652;12.216;2022-12-07T15:11:37;5.10;42.60
148;DHT22;142;50.652;12.216;2022-12-07T15:14:05;5.10;42.60
148;DHT22;142;50.652;12.216;2022-12-07T15:16:37;5.10;42.70
148;DHT22;142;50.652;12.216;2022-12-07T15:19:05;5.10;42.90
148;DHT22;142;50.652;12.216;2022-12-07T15:21:34;5.00;42.90
148;DHT22;142;50.652;12.216;2022-12-07T15:24:01;4.90;42.90
148;DHT22;142;50.652;12.216;2022-12-07T15:26:30;4.80;42.80
148;DHT22;142;50.652;12.216;2022-12-07T15:28:57;4.80;42.90
148;DHT22;142;50.652;12.216;2022-12-07T15:31:24;4.90;43.10
148;DHT22;142;50.652;12.216;2022-12-07T15:33:51;4.90;43.10
148;DHT22;142;50.652;12.216;2022-12-07T15:36:20;4.90;42.90
148;DHT22;142;50.652;12.216;2022-12-07T15:38:49;4.80;42.90
148;DHT22;142;50.652;12.216;2022-12-07T15:41:17;4.80;42.90
148;DHT22;142;50.652;12.216;2022-12-07T15:43:44;4.70;42.90
148;DHT22;142;50.652;12.216;2022-12-07T15:46:30;4.70;43.00
148;DHT22;142;50.652;12.216;2022-12-07T15:48:58;4.70;43.10
148;DHT22;142;50.652;12.216;2022-12-07T15:51:25;4.70;43.30
148;DHT22;142;50.652;12.216;2022-12-07T15:53:54;4.80;43.30
148;DHT22;142;50.652;12.216;2022-12-07T15:56:22;4.80;43.50
148;DHT22;142;50.652;12.216;2022-12-07T15:58:51;4.80;43.20
148;DHT22;142;50.652;12.216;2022-12-07T16:01:22;4.70;43.10
148;DHT22;142;50.652;12.216;2022-12-07T16:03:49;4.70;43.20
148;DHT22;142;50.652;12.216;2022-12-07T16:06:17;4.70;43.30
148;DHT22;142;50.652;12.216;2022-12-07T16:08:45;4.70;43.40
148;DHT22;142;50.652;12.216;2022-12-07T16:11:14;4.70;43.30
148;DHT22;142;50.652;12.216;2022-12-07T16:13:42;4.70;43.40
148;DHT22;142;50.652;12.216;2022-12-07T16:16:11;4.70;43.50
148;DHT22;142;50.652;12.216;2022-12-07T16:18:39;4.60;43.30
148;DHT22;142;50.652;12.216;2022-12-07T16:21:06;4.70;43.50
148;DHT22;142;50.652;12.216;2022-12-07T16:23:34;4.60;43.50
148;DHT22;142;50.652;12.216;2022-12-07T16:26:06;4.60;43.60
148;DHT22;142;50.652;12.216;2022-12-07T16:28:35;4.60;43.60
148;DHT22;142;50.652;12.216;2022-12-07T16:31:06;4.60;43.70
148;DHT22;142;50.652;12.216;2022-12-07T16:33:35;4.70;43.80
148;DHT22;142;50.652;12.216;2022-12-07T16:36:04;4.70;43.80
148;DHT22;142;50.652;12.216;2022-12-07T16:38:32;4.70;43.80
148;DHT22;142;50.652;12.216;2022-12-07T16:41:04;4.70;43.80
148;DHT22;142;50.652;12.216;2022-12-07T16:43:34;4.80;43.90
148;DHT22;142;50.652;12.216;2022-12-07T16:46:02;4.90;43.80
148;DHT22;142;50.652;12.216;2022-12-07T16:48:29;4.90;43.90
148;DHT22;142;50.652;12.216;2022-12-07T16:50:57;4.90;43.70
148;DHT22;142;50.652;12.216;2022-12-07T16:53:24;4.90;43.70
148;DHT22;142;50.652;12.216;2022-12-07T16:55:52;4.80;43.70
148;DHT22;142;50.652;12.216;2022-12-07T16:58:19;4.80;43.60
148;DHT22;142;50.652;12.216;2022-12-07T17:00:48;4.80;43.80
148;DHT22;142;50.652;12.216;2022-12-07T17:03:15;4.80;43.80
148;DHT22;142;50.652;12.216;2022-12-07T17:05:44;4.80;43.90
148;DHT22;142;50.652;12.216;2022-12-07T17:08:13;4.80;43.90
148;DHT22;142;50.652;12.216;2022-12-07T17:10:42;4.90;44.00
148;DHT22;142;50.652;12.216;2022-12-07T17:13:09;4.90;44.00
148;DHT22;142;50.652;12.216;2022-12-07T17:16:01;4.90;44.00
148;DHT22;142;50.652;12.216;2022-12-07T17:18:32;4.90;43.90